WetterOnline ( https://www.wetteronline.de )

Wetter aktuell Letschin

Aktuelles Wetter: Manschnow (16m)

6-stündlich | Neueste Meldungen
Ortszeit Temperatur Wetter
Mi, 18.05. 8:00 11.8° C wolkig
Mi, 18.05. 2:00 11.6° C leicht bewölkt
Di, 17.05. 20:00 19.3° C bewölkt
Di, 17.05. 14:00 19.8° C wolkig
Di, 17.05. 8:00 13.4° C bedeckt
Di, 17.05. 2:00 14.9° C wolkig
Mo, 16.05. 20:00 21.0° C bedeckt
Mo, 16.05. 14:00 22.2° C wolkig
Ortszeit Temperatur Wetter
Mi, 18.05. 12:00 19.1° C wolkig
Mi, 18.05. 11:50 19.1° C wolkig
Mi, 18.05. 11:40 18.9° C bewölkt
Mi, 18.05. 11:30 18.0° C wolkig
Mi, 18.05. 11:20 18.0° C wolkig
Mi, 18.05. 11:10 17.9° C bedeckt
Mi, 18.05. 11:00 18.0° C wolkig
Mi, 18.05. 10:30 17.0° C bewölkt
Mi, 18.05. 10:00 16.4° C wolkig
Mi, 18.05. 9:30 14.8° C bedeckt
Mi, 18.05. 9:00 13.3° C wolkig
Ortszeit Relative Feuchte Sichtweite
Mi, 18.05. 8:00 49% 40 km
Mi, 18.05. 2:00 50% 30 km
Di, 17.05. 20:00 48% 29 km
Di, 17.05. 14:00 48% 40 km
Di, 17.05. 8:00 62% 35 km
Di, 17.05. 2:00 58% 50 km
Mo, 16.05. 20:00 46% 35 km
Mo, 16.05. 14:00 42% 35 km
Ortszeit Relative Feuchte Sichtweite
Mi, 18.05. 12:00 34% 55 km
Mi, 18.05. 11:50 34% -
Mi, 18.05. 11:40 34% -
Mi, 18.05. 11:30 34% 35 km
Mi, 18.05. 11:20 34% -
Mi, 18.05. 11:10 36% -
Mi, 18.05. 11:00 38% 55 km
Mi, 18.05. 10:30 40% 50 km
Mi, 18.05. 10:00 40% 60 km
Mi, 18.05. 9:30 44% 55 km
Mi, 18.05. 9:00 46% 50 km
Ortszeit Niederschlagsmenge Niederschlagsart
Mi, 18.05. 8:00 0.0 l/m2 in 12 Std. -
Mi, 18.05. 2:00 0.0 l/m2 in 6 Std. -
Di, 17.05. 20:00 0.1 l/m2 in 12 Std. -
Di, 17.05. 14:00 0.1 l/m2 in 6 Std. Regen
Di, 17.05. 8:00 0.1 l/m2 in 12 Std. Regen
Di, 17.05. 2:00 0.0 l/m2 in 6 Std. -
Mo, 16.05. 20:00 0.0 l/m2 in 12 Std. -
Mo, 16.05. 14:00 0.0 l/m2 in 6 Std. -
Ortszeit Niederschlagsmenge Niederschlagsart
Mi, 18.05. 12:00 0.0 l/m2 in 1 Std. -
Mi, 18.05. 11:50 keine Meldung -
Mi, 18.05. 11:40 keine Meldung -
Mi, 18.05. 11:30 0.0 l/m2 in 1 Std. -
Mi, 18.05. 11:20 keine Meldung -
Mi, 18.05. 11:10 keine Meldung -
Mi, 18.05. 11:00 0.0 l/m2 in 1 Std. -
Mi, 18.05. 10:30 0.0 l/m2 in 1 Std. -
Mi, 18.05. 10:00 0.0 l/m2 in 1 Std. -
Mi, 18.05. 9:30 0.0 l/m2 in 1 Std. -
Mi, 18.05. 9:00 0.0 l/m2 in 1 Std. -
Ortszeit Stärke Spitze Richtung
km/h Bft. km/h Grad Sektor
Mi, 18.05. 8:00 17 3 26 120° SO
Mi, 18.05. 2:00 15 3 35 100° O
Di, 17.05. 20:00 4 1 18 60° NO
Di, 17.05. 14:00 7 2 18 80° O
Di, 17.05. 8:00 7 2 25 40° NO
Di, 17.05. 2:00 11 2 22 80° O
Mo, 16.05. 20:00 7 2 22 50° NO
Mo, 16.05. 14:00 9 2 20 90° O
Ortszeit Stärke Spitze Richtung
km/h Bft. km/h Grad Sektor
Mi, 18.05. 12:00 17 3 28 120° SO
Mi, 18.05. 11:50 17 3 - 120° SO
Mi, 18.05. 11:40 18 3 - 120° SO
Mi, 18.05. 11:30 18 3 29 110° O
Mi, 18.05. 11:20 18 3 - 110° O
Mi, 18.05. 11:10 17 3 - 120° SO
Mi, 18.05. 11:00 15 3 28 120° SO
Mi, 18.05. 10:30 17 3 26 120° SO
Mi, 18.05. 10:00 14 3 25 120° SO
Mi, 18.05. 9:30 15 3 24 130° SO
Mi, 18.05. 9:00 18 3 29 120° SO
Ortszeit Untergrenze Bedeckung Gattung
total tief tief mittel hoch
Mi, 18.05. 8:00 6300 m 8/8 8/8 - - -
Mi, 18.05. 2:00 9000 m 6/8 0/8 - - -
Di, 17.05. 20:00 6300 m 8/8 6/8 - - -
Di, 17.05. 14:00 4200 m 8/8 8/8 - - -
Di, 17.05. 8:00 2100 m 8/8 8/8 - - -
Di, 17.05. 2:00 2400 m 8/8 2/8 - - -
Mo, 16.05. 20:00 5100 m 8/8 8/8 - - -
Mo, 16.05. 14:00 6000 m 7/8 5/8 - - -
Ortszeit Bedeckungsgrad in Achtel und Wolkenuntergrenze
Mi, 18.05. 12:00 2(6900m) 7(7500m) 7(8400m)
Mi, 18.05. 11:50 2(6900m) 7(7500m) 7(8400m)
Mi, 18.05. 11:40 7
Mi, 18.05. 11:30 2(6600m) 8(7200m) 8(9000m)
Mi, 18.05. 11:20 2(6600m) 8(7200m) 8(9000m)
Mi, 18.05. 11:10 8
Mi, 18.05. 11:00 8(6600m)
Mi, 18.05. 10:30 6(6600m) 8(7200m) 8(7800m)
Mi, 18.05. 10:00 8(6300m) 8(8100m) 8(9000m)
Mi, 18.05. 9:30 8(6000m)
Mi, 18.05. 9:00 8(6000m)
Ortszeit Luftdruck NN (hPa) Tendenz (hPa in 3 Std.)
Mi, 18.05. 8:00 1028 + 0,8
Mi, 18.05. 2:00 1025 + 2,3
Di, 17.05. 20:00 1021 + 0,6
Di, 17.05. 14:00 1021 + 0,1
Di, 17.05. 8:00 1020 + 2,0
Di, 17.05. 2:00 1018 0,0
Mo, 16.05. 20:00 1017 - 0,5
Mo, 16.05. 14:00 1019 - 1,3
Ortszeit Luftdruck NN (hPa) Tendenz (hPa in 3 Std.)
Mi, 18.05. 12:00 1028 - 0,4
Mi, 18.05. 11:50 1028 keine Meldung
Mi, 18.05. 11:40 1028 keine Meldung
Mi, 18.05. 11:30 1028 + 0,1
Mi, 18.05. 11:20 1028 keine Meldung
Mi, 18.05. 11:10 1028 keine Meldung
Mi, 18.05. 11:00 1028 + 0,2
Mi, 18.05. 10:30 1028 + 0,4
Mi, 18.05. 10:00 1028 + 0,4
Mi, 18.05. 9:30 1028 + 0,5
Mi, 18.05. 9:00 1028 + 0,5
Ortszeit Schneehöhe (cm)
Mi, 18.05. 8:00 0
Mi, 18.05. 2:00 0
Di, 17.05. 20:00 0
Di, 17.05. 14:00 0
Di, 17.05. 8:00 0
Di, 17.05. 2:00 0
Mo, 16.05. 20:00 0
Mo, 16.05. 14:00 0
Ortszeit Schneehöhe (cm)
Mi, 18.05. 12:00 0
Mi, 18.05. 11:50 0
Mi, 18.05. 11:40 0
Mi, 18.05. 11:30 0
Mi, 18.05. 11:20 0
Mi, 18.05. 11:10 0
Mi, 18.05. 11:00 0
Mi, 18.05. 10:30 0
Mi, 18.05. 10:00 0
Mi, 18.05. 9:30 0
Mi, 18.05. 9:00 0
Link zu dieser Seite / Seite empfehlen

Das Wetter in ...